Time;durP1;ratioP1;P1;durP2;ratioP2;P2;SDS_P1;SDS_P2;PMS_P1;PMS_P2;Temp;Humidity;BMP_temperature;BMP_pressure;BME280_temperature;BME280_humidity;BME280_pressure;Samples;Min_cycle;Max_cycle;Signal;HPM_P1;HPM_P2
2021/06/25 00:00:18;;;;;;;2.20;0.45;;;;;;;;;;5083869;28;20047;-52
2021/06/25 00:02:45;;;;;;;0.40;0.40;;;;;;;;;;5086422;28;20040;-53
2021/06/25 00:05:12;;;;;;;1.23;0.70;;;;;;;;;;5083628;28;20032;-53
2021/06/25 00:07:38;;;;;;;0.50;0.50;;;;;;;;;;5085797;28;20063;-53
2021/06/25 00:10:06;;;;;;;0.50;0.50;;;;;;;;;;5077982;28;20058;-52
2021/06/25 00:12:33;;;;;;;1.58;0.50;;;;;;;;;;5082769;28;20049;-54
2021/06/25 00:15:00;;;;;;;0.90;0.60;;;;;;;;;;5074214;28;20114;-54
2021/06/25 00:17:27;;;;;;;1.38;0.57;;;;;;;;;;5082147;28;20071;-53
2021/06/25 00:19:53;;;;;;;0.60;0.50;;;;;;;;;;5087354;28;20484;-53
2021/06/25 00:22:20;;;;;;;0.50;0.50;;;;;;;;;;5089854;28;20075;-54
2021/06/25 00:24:47;;;;;;;1.75;0.60;;;;;;;;;;5084148;28;20072;-53
2021/06/25 00:27:13;;;;;;;0.60;0.50;;;;;;;;;;5090383;28;20048;-53
2021/06/25 00:29:42;;;;;;;2.13;0.50;;;;;;;;;;5090936;28;20068;-53
2021/06/25 00:32:09;;;;;;;0.50;0.50;;;;;;;;;;5089220;28;20055;-53
2021/06/25 00:34:36;;;;;;;0.50;0.50;;;;;;;;;;5074985;28;20044;-52
2021/06/25 00:37:03;;;;;;;0.60;0.60;;;;;;;;;;5087406;28;20072;-52
2021/06/25 00:39:30;;;;;;;1.20;0.60;;;;;;;;;;5092533;28;20088;-53
2021/06/25 00:41:56;;;;;;;0.50;0.50;;;;;;;;;;5085325;28;20045;-52
2021/06/25 00:44:23;;;;;;;1.23;0.50;;;;;;;;;;5080052;28;20048;-53
2021/06/25 00:46:50;;;;;;;0.50;0.50;;;;;;;;;;5075171;28;20449;-54
2021/06/25 00:49:17;;;;;;;0.52;0.52;;;;;;;;;;5088083;28;20040;-52
2021/06/25 00:51:44;;;;;;;0.55;0.55;;;;;;;;;;5091057;28;20155;-52
2021/06/25 00:54:12;;;;;;;1.20;0.50;;;;;;;;;;5089322;28;20706;-52
2021/06/25 00:56:39;;;;;;;0.50;0.50;;;;;;;;;;5089327;28;20047;-51
2021/06/25 00:59:06;;;;;;;0.60;0.60;;;;;;;;;;5086562;28;20067;-47
2021/06/25 01:01:33;;;;;;;0.60;0.60;;;;;;;;;;5085121;28;20070;-54
2021/06/25 01:04:00;;;;;;;0.60;0.60;;;;;;;;;;5088833;28;20377;-50
2021/06/25 01:06:28;;;;;;;0.70;0.60;;;;;;;;;;5091809;28;20035;-54
2021/06/25 01:08:56;;;;;;;0.57;0.57;;;;;;;;;;5085143;28;20032;-56
2021/06/25 01:11:23;;;;;;;1.63;1.00;;;;;;;;;;5079277;28;20041;-51
2021/06/25 01:13:49;;;;;;;2.38;0.60;;;;;;;;;;5085670;28;20119;-49
2021/06/25 01:16:16;;;;;;;0.60;0.60;;;;;;;;;;5088792;28;20438;-52
2021/06/25 01:18:43;;;;;;;0.60;0.60;;;;;;;;;;5086302;28;20041;-53
2021/06/25 01:21:10;;;;;;;1.27;0.60;;;;;;;;;;5083421;28;20036;-51
2021/06/25 01:23:38;;;;;;;0.85;0.50;;;;;;;;;;5077551;28;20050;-52
2021/06/25 01:26:05;;;;;;;1.60;0.70;;;;;;;;;;5085722;28;20486;-53
2021/06/25 01:28:32;;;;;;;0.50;0.50;;;;;;;;;;5085413;28;20040;-51
2021/06/25 01:30:59;;;;;;;0.50;0.50;;;;;;;;;;5088545;28;20032;-53
2021/06/25 01:33:26;;;;;;;1.48;0.60;;;;;;;;;;5082550;28;20036;-53
2021/06/25 01:35:54;;;;;;;3.22;0.70;;;;;;;;;;5073500;28;20140;-51
2021/06/25 01:38:21;;;;;;;0.60;0.60;;;;;;;;;;5078410;28;20082;-53
2021/06/25 01:40:48;;;;;;;0.60;0.60;;;;;;;;;;5086015;28;20165;-53
2021/06/25 01:43:15;;;;;;;0.50;0.50;;;;;;;;;;5081470;28;20068;-53
2021/06/25 01:45:42;;;;;;;1.38;0.60;;;;;;;;;;5083646;28;20594;-53
2021/06/25 01:48:09;;;;;;;1.52;0.60;;;;;;;;;;5087286;28;20079;-52
2021/06/25 01:50:39;;;;;;;0.50;0.50;;;;;;;;;;5078406;28;20082;-53
2021/06/25 01:53:10;;;;;;;0.50;0.50;;;;;;;;;;5081012;28;20089;-53
2021/06/25 01:55:41;;;;;;;0.60;0.60;;;;;;;;;;5087503;28;20036;-53
2021/06/25 01:58:12;;;;;;;0.50;0.50;;;;;;;;;;5083230;28;20089;-53
2021/06/25 02:00:44;;;;;;;0.50;0.50;;;;;;;;;;5089490;28;20619;-53
2021/06/25 02:03:10;;;;;;;0.60;0.60;;;;;;;;;;5086107;28;20470;-53
2021/06/25 02:05:37;;;;;;;0.60;0.60;;;;;;;;;;5085182;28;20040;-53
2021/06/25 02:08:04;;;;;;;1.75;0.60;;;;;;;;;;5080607;28;20032;-53
2021/06/25 02:10:31;;;;;;;1.10;0.65;;;;;;;;;;5086939;28;20044;-52
2021/06/25 02:12:58;;;;;;;1.52;0.68;;;;;;;;;;5082854;28;20040;-53
2021/06/25 02:15:25;;;;;;;0.60;0.60;;;;;;;;;;5077380;28;20136;-54
2021/06/25 02:17:52;;;;;;;0.60;0.60;;;;;;;;;;5080702;28;20127;-53
2021/06/25 02:20:19;;;;;;;0.88;0.70;;;;;;;;;;5081105;28;20040;-53
2021/06/25 02:22:45;;;;;;;0.60;0.60;;;;;;;;;;5080865;28;20469;-53
2021/06/25 02:25:12;;;;;;;0.88;0.80;;;;;;;;;;5082764;28;20115;-53
2021/06/25 02:27:39;;;;;;;1.30;0.70;;;;;;;;;;5086462;28;20048;-52
2021/06/25 02:30:07;;;;;;;0.65;0.65;;;;;;;;;;5079733;28;20106;-53
2021/06/25 02:32:34;;;;;;;0.98;0.70;;;;;;;;;;5073355;28;20093;-52
2021/06/25 02:35:01;;;;;;;0.63;0.63;;;;;;;;;;5087567;28;20063;-52
2021/06/25 02:37:28;;;;;;;0.88;0.80;;;;;;;;;;5081280;28;20036;-53
2021/06/25 02:39:54;;;;;;;6.30;1.17;;;;;;;;;;5076885;28;20056;-52
2021/06/25 02:42:21;;;;;;;0.60;0.60;;;;;;;;;;5079639;28;20059;-54
2021/06/25 02:44:48;;;;;;;0.60;0.60;;;;;;;;;;5086301;28;20064;-53
2021/06/25 02:47:15;;;;;;;0.70;0.70;;;;;;;;;;5087845;28;20123;-53
2021/06/25 02:49:41;;;;;;;0.60;0.60;;;;;;;;;;5085862;28;20036;-53
2021/06/25 02:52:08;;;;;;;1.10;0.85;;;;;;;;;;5077494;28;20102;-53
2021/06/25 02:54:36;;;;;;;1.20;0.70;;;;;;;;;;5083064;28;20040;-54
2021/06/25 02:57:03;;;;;;;2.05;0.60;;;;;;;;;;5084629;28;20044;-53
2021/06/25 02:59:30;;;;;;;0.60;0.60;;;;;;;;;;5087244;28;20070;-53
2021/06/25 03:01:56;;;;;;;4.40;0.60;;;;;;;;;;5084772;28;20055;-53
2021/06/25 03:04:23;;;;;;;0.60;0.60;;;;;;;;;;5069957;28;20037;-53
2021/06/25 03:06:50;;;;;;;0.60;0.60;;;;;;;;;;5086530;28;20073;-53
2021/06/25 03:09:16;;;;;;;2.67;0.70;;;;;;;;;;5080037;28;20078;-53
2021/06/25 03:11:43;;;;;;;1.17;0.70;;;;;;;;;;5077420;28;20465;-52
2021/06/25 03:14:10;;;;;;;3.45;0.80;;;;;;;;;;5080854;28;20075;-52
2021/06/25 03:16:37;;;;;;;0.68;0.68;;;;;;;;;;5085642;28;20452;-52
2021/06/25 03:19:04;;;;;;;2.25;0.70;;;;;;;;;;5082017;28;20068;-52
2021/06/25 03:21:30;;;;;;;0.60;0.60;;;;;;;;;;5075425;28;20091;-53
2021/06/25 03:23:57;;;;;;;2.25;0.73;;;;;;;;;;5071862;28;20072;-53
2021/06/25 03:26:24;;;;;;;0.65;0.65;;;;;;;;;;5083547;28;20082;-53
2021/06/25 03:28:50;;;;;;;2.92;0.60;;;;;;;;;;5078517;28;20052;-54
2021/06/25 03:31:17;;;;;;;1.90;0.60;;;;;;;;;;5082029;28;20455;-54
2021/06/25 03:33:44;;;;;;;0.60;0.60;;;;;;;;;;5083294;28;20040;-54
2021/06/25 03:36:15;;;;;;;0.60;0.60;;;;;;;;;;5087149;28;20048;-53
2021/06/25 03:38:42;;;;;;;0.60;0.60;;;;;;;;;;5081408;28;20045;-54
2021/06/25 03:41:09;;;;;;;0.60;0.60;;;;;;;;;;5080037;28;20039;-52
2021/06/25 03:43:35;;;;;;;0.60;0.60;;;;;;;;;;5084823;28;20044;-53
2021/06/25 03:46:02;;;;;;;0.70;0.70;;;;;;;;;;5081285;28;20111;-53
2021/06/25 03:48:29;;;;;;;1.30;0.70;;;;;;;;;;5088313;28;20063;-52
2021/06/25 03:50:56;;;;;;;0.80;0.80;;;;;;;;;;5077980;28;20055;-53
2021/06/25 03:53:22;;;;;;;1.65;0.60;;;;;;;;;;5075468;28;20136;-52
2021/06/25 03:58:35;;;;;;;0.60;0.50;;;;;;;;;;5088696;28;20508;-52
2021/06/25 04:01:02;;;;;;;0.70;0.70;;;;;;;;;;5091280;28;20090;-53
2021/06/25 04:03:29;;;;;;;1.08;0.65;;;;;;;;;;5088078;28;20371;-52
2021/06/25 04:05:56;;;;;;;0.68;0.60;;;;;;;;;;5080222;28;20045;-53
2021/06/25 04:08:25;;;;;;;5.15;0.70;;;;;;;;;;5074418;28;20120;-53
2021/06/25 04:10:52;;;;;;;0.65;0.65;;;;;;;;;;5084755;28;20097;-53
2021/06/25 04:13:19;;;;;;;2.45;0.70;;;;;;;;;;5083888;28;20044;-53
2021/06/25 04:15:46;;;;;;;0.60;0.60;;;;;;;;;;5088942;28;20060;-53
2021/06/25 04:18:14;;;;;;;0.70;0.70;;;;;;;;;;5083800;28;20124;-52
2021/06/25 04:20:41;;;;;;;0.80;0.80;;;;;;;;;;5074147;28;20428;-54
2021/06/25 04:23:08;;;;;;;0.70;0.70;;;;;;;;;;5081308;28;20090;-52
2021/06/25 04:25:35;;;;;;;1.48;0.70;;;;;;;;;;5078020;28;20560;-53
2021/06/25 04:28:02;;;;;;;0.70;0.70;;;;;;;;;;5080069;28;20527;-53
2021/06/25 04:30:29;;;;;;;1.55;0.60;;;;;;;;;;5088249;28;20068;-53
2021/06/25 04:33:01;;;;;;;0.70;0.70;;;;;;;;;;5086767;28;20055;-53
2021/06/25 04:35:28;;;;;;;1.00;0.60;;;;;;;;;;5080387;28;20038;-54
2021/06/25 04:37:55;;;;;;;0.70;0.70;;;;;;;;;;5078178;28;20246;-53
2021/06/25 04:40:22;;;;;;;7.65;0.80;;;;;;;;;;5083647;28;20036;-54
2021/06/25 04:42:48;;;;;;;0.70;0.70;;;;;;;;;;5084285;28;20067;-51
2021/06/25 04:45:15;;;;;;;0.70;0.70;;;;;;;;;;5091623;28;20048;-53
2021/06/25 04:47:43;;;;;;;0.70;0.70;;;;;;;;;;5088536;28;20109;-52
2021/06/25 04:50:10;;;;;;;0.80;0.80;;;;;;;;;;5088776;28;20476;-53
2021/06/25 04:52:38;;;;;;;0.95;0.70;;;;;;;;;;5090501;28;20051;-53
2021/06/25 04:55:05;;;;;;;0.70;0.70;;;;;;;;;;5087215;28;20056;-52
2021/06/25 04:57:32;;;;;;;1.52;1.08;;;;;;;;;;5088569;28;20040;-53
2021/06/25 04:59:59;;;;;;;1.10;1.00;;;;;;;;;;5089419;28;20442;-53
2021/06/25 05:02:25;;;;;;;4.43;1.45;;;;;;;;;;5085584;28;20048;-53
2021/06/25 05:04:53;;;;;;;5.90;1.10;;;;;;;;;;5090353;28;20048;-53
2021/06/25 05:07:20;;;;;;;1.55;0.80;;;;;;;;;;5082430;28;20071;-53
2021/06/25 05:09:46;;;;;;;0.80;0.80;;;;;;;;;;5090707;28;20067;-53
2021/06/25 05:12:13;;;;;;;0.70;0.70;;;;;;;;;;5087459;28;20036;-52
2021/06/25 05:14:40;;;;;;;1.50;0.80;;;;;;;;;;5086572;28;20040;-53
2021/06/25 05:17:06;;;;;;;1.85;0.70;;;;;;;;;;5091925;28;20083;-53
2021/06/25 05:19:33;;;;;;;1.77;0.70;;;;;;;;;;5084774;28;20090;-53
2021/06/25 05:22:00;;;;;;;1.90;0.80;;;;;;;;;;5089015;28;20089;-53
2021/06/25 05:24:27;;;;;;;0.70;0.70;;;;;;;;;;5076900;28;20427;-53
2021/06/25 05:26:54;;;;;;;0.70;0.70;;;;;;;;;;5083590;28;20090;-53
2021/06/25 05:29:21;;;;;;;1.48;0.70;;;;;;;;;;5075033;28;20066;-53
2021/06/25 05:31:48;;;;;;;0.70;0.70;;;;;;;;;;5085129;28;20500;-52
2021/06/25 05:34:15;;;;;;;1.50;0.80;;;;;;;;;;5089876;28;20166;-52
2021/06/25 05:36:41;;;;;;;1.20;0.90;;;;;;;;;;5086364;28;20531;-52
2021/06/25 05:39:08;;;;;;;0.75;0.75;;;;;;;;;;5081692;28;20051;-53
2021/06/25 05:41:35;;;;;;;0.80;0.80;;;;;;;;;;5075420;28;20610;-52
2021/06/25 05:44:02;;;;;;;3.58;1.20;;;;;;;;;;5085771;28;20519;-52
2021/06/25 05:46:29;;;;;;;3.50;1.30;;;;;;;;;;5089430;28;20491;-53
2021/06/25 05:48:56;;;;;;;1.73;1.58;;;;;;;;;;5086937;28;20044;-53
2021/06/25 05:51:22;;;;;;;8.90;1.90;;;;;;;;;;5085001;28;20147;-51
2021/06/25 05:53:49;;;;;;;1.42;1.20;;;;;;;;;;5091010;28;20040;-53
2021/06/25 05:56:16;;;;;;;2.40;1.58;;;;;;;;;;5081078;28;20080;-53
2021/06/25 05:58:43;;;;;;;1.45;1.13;;;;;;;;;;5064035;28;20040;-53
2021/06/25 06:01:09;;;;;;;1.85;1.35;;;;;;;;;;5089766;28;20044;-54
2021/06/25 06:03:38;;;;;;;2.58;2.10;;;;;;;;;;5083780;28;20656;-53
2021/06/25 06:06:06;;;;;;;1.50;1.40;;;;;;;;;;5073820;28;20071;-53
2021/06/25 06:08:33;;;;;;;3.42;2.38;;;;;;;;;;5087444;28;20082;-54
2021/06/25 06:11:00;;;;;;;2.35;1.52;;;;;;;;;;5089858;28;20028;-53
2021/06/25 06:13:26;;;;;;;3.13;1.40;;;;;;;;;;5076761;28;20040;-52
2021/06/25 06:15:55;;;;;;;2.92;1.80;;;;;;;;;;5083075;28;20052;-53
2021/06/25 06:18:27;;;;;;;2.70;2.05;;;;;;;;;;5086808;28;20036;-54
2021/06/25 06:20:54;;;;;;;3.58;1.30;;;;;;;;;;5088437;28;20040;-53
2021/06/25 06:31:42;;;;;;;1.85;1.17;;;;;;;;;;5080884;28;20040;-53
2021/06/25 06:34:13;;;;;;;1.15;1.00;;;;;;;;;;5085545;28;20089;-54
2021/06/25 06:36:45;;;;;;;1.02;1.02;;;;;;;;;;5077519;28;20047;-53
2021/06/25 06:39:13;;;;;;;1.33;1.23;;;;;;;;;;5079820;28;20472;-52
2021/06/25 06:41:40;;;;;;;1.50;1.10;;;;;;;;;;5089861;28;20442;-53
2021/06/25 06:44:07;;;;;;;0.90;0.90;;;;;;;;;;5083394;28;20135;-53
2021/06/25 06:46:35;;;;;;;1.77;0.80;;;;;;;;;;5087452;28;20032;-52
2021/06/25 06:49:03;;;;;;;0.82;0.70;;;;;;;;;;5085366;28;20032;-53
2021/06/25 06:51:29;;;;;;;1.20;0.70;;;;;;;;;;5084190;28;20418;-54
2021/06/25 06:53:57;;;;;;;0.70;0.70;;;;;;;;;;5071773;28;20056;-51
2021/06/25 06:56:24;;;;;;;0.88;0.80;;;;;;;;;;5083450;28;20036;-53
2021/06/25 06:58:53;;;;;;;4.72;0.70;;;;;;;;;;5088272;28;20049;-54
2021/06/25 07:01:23;;;;;;;2.13;0.70;;;;;;;;;;5088173;28;20547;-53
2021/06/25 07:04:10;;;;;;;0.60;0.60;;;;;;;;;;5082252;28;20040;-53
2021/06/25 07:06:37;;;;;;;1.23;0.70;;;;;;;;;;5087122;28;20040;-53
2021/06/25 07:09:04;;;;;;;0.98;0.95;;;;;;;;;;5087976;28;20067;-54
2021/06/25 07:11:30;;;;;;;0.60;0.60;;;;;;;;;;5086850;28;20423;-53
2021/06/25 07:13:57;;;;;;;1.08;0.60;;;;;;;;;;5087665;28;20040;-53
2021/06/25 07:16:24;;;;;;;1.15;0.60;;;;;;;;;;5083878;28;20079;-52
2021/06/25 07:18:50;;;;;;;0.68;0.68;;;;;;;;;;5085349;28;20393;-52
2021/06/25 07:21:18;;;;;;;0.60;0.60;;;;;;;;;;5084951;28;20499;-54
2021/06/25 07:23:46;;;;;;;0.70;0.70;;;;;;;;;;5081631;28;20117;-54
2021/06/25 07:26:13;;;;;;;0.60;0.60;;;;;;;;;;5090266;28;20040;-53
2021/06/25 07:28:39;;;;;;;0.82;0.65;;;;;;;;;;5083883;28;20596;-53
2021/06/25 07:31:06;;;;;;;0.63;0.63;;;;;;;;;;5087267;28;20079;-54
2021/06/25 07:33:33;;;;;;;1.35;0.70;;;;;;;;;;5082294;28;20028;-54
2021/06/25 07:36:00;;;;;;;1.45;0.55;;;;;;;;;;5085999;28;20063;-54
2021/06/25 07:38:26;;;;;;;2.08;0.50;;;;;;;;;;5089810;28;20812;-53
2021/06/25 07:40:53;;;;;;;0.57;0.57;;;;;;;;;;5084235;28;20131;-55
2021/06/25 07:43:20;;;;;;;0.60;0.60;;;;;;;;;;5087032;28;20493;-54
2021/06/25 07:45:47;;;;;;;0.50;0.50;;;;;;;;;;5087174;28;20097;-54
2021/06/25 07:48:14;;;;;;;0.60;0.60;;;;;;;;;;5082834;28;20131;-54
2021/06/25 07:50:41;;;;;;;1.02;0.50;;;;;;;;;;5088531;28;20032;-51
2021/06/25 07:53:10;;;;;;;0.50;0.50;;;;;;;;;;5085069;28;20036;-53
2021/06/25 07:55:42;;;;;;;0.50;0.50;;;;;;;;;;5085908;28;20044;-55
2021/06/25 07:58:11;;;;;;;2.28;0.50;;;;;;;;;;5085938;28;20032;-54
2021/06/25 08:00:38;;;;;;;0.65;0.50;;;;;;;;;;5084060;28;20045;-53
2021/06/25 08:03:05;;;;;;;0.40;0.40;;;;;;;;;;5081281;28;20063;-54
2021/06/25 08:05:33;;;;;;;0.50;0.50;;;;;;;;;;5083378;28;20056;-53
2021/06/25 08:08:00;;;;;;;1.85;0.50;;;;;;;;;;5100522;28;20484;-53
2021/06/25 08:10:27;;;;;;;0.50;0.50;;;;;;;;;;5086964;28;20048;-54
2021/06/25 08:12:54;;;;;;;0.40;0.40;;;;;;;;;;5080437;28;20115;-54
2021/06/25 08:15:21;;;;;;;0.40;0.40;;;;;;;;;;5075319;28;20044;-54
2021/06/25 08:17:47;;;;;;;0.47;0.40;;;;;;;;;;5083524;28;20036;-54
2021/06/25 08:20:14;;;;;;;0.40;0.40;;;;;;;;;;5082462;28;20063;-54
2021/06/25 08:22:41;;;;;;;0.40;0.40;;;;;;;;;;5087809;28;20075;-54
2021/06/25 08:25:08;;;;;;;0.40;0.40;;;;;;;;;;5079044;28;20097;-54
2021/06/25 08:27:35;;;;;;;0.40;0.40;;;;;;;;;;5087664;28;20507;-52
2021/06/25 08:30:03;;;;;;;1.90;0.40;;;;;;;;;;5083647;28;20109;-54
2021/06/25 08:32:30;;;;;;;0.50;0.50;;;;;;;;;;5083795;28;20044;-54
2021/06/25 08:34:57;;;;;;;0.47;0.47;;;;;;;;;;5087754;28;20127;-54
2021/06/25 08:37:24;;;;;;;0.50;0.50;;;;;;;;;;5084485;28;20109;-54
2021/06/25 08:39:54;;;;;;;0.40;0.40;;;;;;;;;;5085292;28;20054;-54
2021/06/25 08:42:21;;;;;;;1.20;0.40;;;;;;;;;;5088892;28;20036;-54
2021/06/25 08:44:48;;;;;;;0.40;0.40;;;;;;;;;;5087606;28;20044;-54
2021/06/25 08:47:14;;;;;;;1.48;0.40;;;;;;;;;;5091276;28;20036;-53
2021/06/25 08:49:42;;;;;;;0.40;0.40;;;;;;;;;;5084115;28;20074;-53
2021/06/25 08:52:09;;;;;;;1.33;0.40;;;;;;;;;;5089420;28;20036;-54
2021/06/25 08:54:37;;;;;;;2.20;0.40;;;;;;;;;;5076502;28;20072;-54
2021/06/25 08:57:07;;;;;;;3.00;0.88;;;;;;;;;;5082400;28;20044;-53
2021/06/25 08:59:34;;;;;;;0.60;0.40;;;;;;;;;;5090951;28;20389;-54
2021/06/25 09:02:02;;;;;;;0.38;0.38;;;;;;;;;;5089260;28;20040;-54
2021/06/25 09:04:33;;;;;;;0.85;0.57;;;;;;;;;;5079586;28;20098;-54
2021/06/25 09:07:00;;;;;;;0.85;0.40;;;;;;;;;;5087544;28;20537;-54
2021/06/25 09:09:43;;;;;;;0.57;0.40;;;;;;;;;;5086695;28;20040;-54
2021/06/25 09:12:11;;;;;;;0.40;0.40;;;;;;;;;;5088606;28;20040;-55
2021/06/25 09:14:57;;;;;;;0.93;0.40;;;;;;;;;;5089768;28;20048;-53
2021/06/25 09:17:24;;;;;;;1.13;0.40;;;;;;;;;;5083338;28;20443;-53
2021/06/25 09:19:51;;;;;;;0.40;0.40;;;;;;;;;;5083032;28;20104;-54
2021/06/25 09:22:18;;;;;;;1.85;0.40;;;;;;;;;;5087348;28;20082;-55
2021/06/25 09:24:57;;;;;;;0.82;0.40;;;;;;;;;;5086756;28;20048;-54
2021/06/25 09:27:25;;;;;;;0.47;0.30;;;;;;;;;;5090731;28;20051;-54
2021/06/25 09:29:52;;;;;;;0.32;0.32;;;;;;;;;;5086553;28;20667;-54
2021/06/25 09:32:18;;;;;;;0.38;0.38;;;;;;;;;;5089891;28;20083;-55
2021/06/25 09:34:47;;;;;;;0.40;0.40;;;;;;;;;;5082722;28;20672;-55
2021/06/25 09:37:15;;;;;;;0.30;0.30;;;;;;;;;;5085174;28;20081;-54
2021/06/25 09:39:43;;;;;;;0.30;0.30;;;;;;;;;;5090123;28;20060;-54
2021/06/25 09:42:17;;;;;;;0.20;0.20;;;;;;;;;;5085918;28;20085;-55
2021/06/25 09:45:02;;;;;;;0.40;0.20;;;;;;;;;;5089386;28;20040;-54
2021/06/25 09:47:29;;;;;;;0.30;0.30;;;;;;;;;;5090322;28;20028;-55
2021/06/25 09:50:08;;;;;;;2.63;0.30;;;;;;;;;;5081663;28;20516;-55
2021/06/25 09:52:48;;;;;;;1.38;0.40;;;;;;;;;;5089549;28;20046;-53
2021/06/25 09:55:18;;;;;;;0.30;0.30;;;;;;;;;;5090320;28;20995;-54
2021/06/25 09:58:09;;;;;;;0.30;0.30;;;;;;;;;;5085638;28;20115;-54
2021/06/25 10:03:42;;;;;;;2.67;0.30;;;;;;;;;;5090442;28;20054;-54
2021/06/25 10:06:10;;;;;;;0.20;0.20;;;;;;;;;;5084872;28;20036;-52
2021/06/25 10:08:38;;;;;;;0.30;0.30;;;;;;;;;;5085619;28;20089;-54
2021/06/25 10:11:05;;;;;;;1.23;0.20;;;;;;;;;;5087760;28;20121;-53
2021/06/25 10:13:34;;;;;;;0.35;0.20;;;;;;;;;;5086073;28;20032;-55
2021/06/25 10:16:01;;;;;;;0.30;0.20;;;;;;;;;;5087745;28;20578;-53
2021/06/25 10:18:29;;;;;;;0.20;0.20;;;;;;;;;;5077009;28;20048;-54
2021/06/25 10:20:56;;;;;;;0.20;0.20;;;;;;;;;;5083849;28;20090;-54
2021/06/25 10:23:27;;;;;;;0.28;0.28;;;;;;;;;;5088453;28;20042;-54
2021/06/25 10:25:54;;;;;;;0.20;0.20;;;;;;;;;;5085844;28;20067;-54
2021/06/25 10:28:21;;;;;;;0.93;0.20;;;;;;;;;;5089532;28;20523;-53
2021/06/25 10:30:49;;;;;;;0.20;0.20;;;;;;;;;;5085697;28;20636;-54
2021/06/25 10:33:21;;;;;;;0.30;0.30;;;;;;;;;;5081004;28;20127;-54
2021/06/25 10:35:48;;;;;;;0.75;0.20;;;;;;;;;;5090202;28;20072;-55
2021/06/25 10:38:18;;;;;;;0.57;0.55;;;;;;;;;;5099895;28;20045;-53
2021/06/25 10:41:13;;;;;;;0.32;0.20;;;;;;;;;;5087681;28;20083;-55
2021/06/25 10:43:40;;;;;;;0.30;0.30;;;;;;;;;;5069921;28;20121;-53
2021/06/25 10:46:30;;;;;;;0.20;0.20;;;;;;;;;;5084904;28;20067;-55
2021/06/25 10:48:58;;;;;;;0.20;0.20;;;;;;;;;;5081846;28;20055;-55
2021/06/25 10:51:25;;;;;;;0.20;0.20;;;;;;;;;;5094932;28;20429;-53
2021/06/25 10:54:13;;;;;;;0.17;0.17;;;;;;;;;;5076949;28;20079;-55
2021/06/25 10:56:49;;;;;;;0.20;0.20;;;;;;;;;;5071122;28;20653;-55
2021/06/25 10:59:19;;;;;;;0.40;0.20;;;;;;;;;;5083834;28;20559;-53
2021/06/25 11:01:47;;;;;;;0.20;0.20;;;;;;;;;;5086800;28;20219;-55
2021/06/25 11:04:35;;;;;;;0.20;0.20;;;;;;;;;;5078169;28;20036;-54
2021/06/25 11:07:25;;;;;;;0.20;0.20;;;;;;;;;;5084843;28;20396;-55
2021/06/25 11:09:56;;;;;;;0.98;0.20;;;;;;;;;;5080310;28;20054;-54
2021/06/25 11:12:25;;;;;;;0.20;0.20;;;;;;;;;;5090034;28;20067;-54
2021/06/25 11:14:53;;;;;;;0.22;0.20;;;;;;;;;;5085234;28;20491;-55
2021/06/25 11:17:39;;;;;;;0.20;0.20;;;;;;;;;;5085701;28;20118;-55
2021/06/25 11:20:16;;;;;;;1.38;0.40;;;;;;;;;;5080596;28;20130;-55
2021/06/25 11:22:49;;;;;;;0.20;0.20;;;;;;;;;;5084076;28;20063;-55
2021/06/25 11:25:31;;;;;;;0.20;0.20;;;;;;;;;;5087326;28;20101;-53
2021/06/25 11:28:27;;;;;;;0.20;0.20;;;;;;;;;;5084989;28;20112;-54
2021/06/25 11:30:56;;;;;;;0.20;0.20;;;;;;;;;;5075197;28;20110;-54
2021/06/25 11:33:23;;;;;;;0.32;0.25;;;;;;;;;;5086578;28;20044;-55
2021/06/25 11:35:50;;;;;;;0.20;0.20;;;;;;;;;;5084756;28;20079;-55
2021/06/25 11:38:16;;;;;;;0.43;0.20;;;;;;;;;;5085816;28;20285;-54
2021/06/25 11:40:50;;;;;;;0.20;0.20;;;;;;;;;;5081091;28;20534;-55
2021/06/25 11:43:19;;;;;;;0.20;0.20;;;;;;;;;;5084492;28;20495;-54
2021/06/25 11:45:50;;;;;;;0.68;0.20;;;;;;;;;;5087838;28;20036;-56
2021/06/25 11:48:20;;;;;;;0.20;0.20;;;;;;;;;;5075482;28;20024;-54
2021/06/25 11:50:52;;;;;;;0.20;0.20;;;;;;;;;;5082954;28;20528;-55
2021/06/25 11:53:19;;;;;;;0.45;0.20;;;;;;;;;;5088619;28;20430;-55
2021/06/25 11:55:53;;;;;;;1.15;0.20;;;;;;;;;;5083509;28;20036;-55
2021/06/25 11:58:20;;;;;;;0.30;0.20;;;;;;;;;;5085805;28;20098;-55
2021/06/25 12:00:47;;;;;;;0.20;0.20;;;;;;;;;;5087328;28;20055;-55
2021/06/25 12:03:14;;;;;;;0.20;0.20;;;;;;;;;;5083542;28;20078;-54
2021/06/25 12:05:45;;;;;;;0.30;0.20;;;;;;;;;;5086881;28;20094;-54
2021/06/25 12:08:16;;;;;;;0.20;0.20;;;;;;;;;;5083547;28;20067;-54
2021/06/25 12:11:04;;;;;;;0.85;0.20;;;;;;;;;;5083162;28;20025;-54
2021/06/25 12:13:31;;;;;;;0.20;0.20;;;;;;;;;;5087801;28;20437;-54
2021/06/25 12:15:57;;;;;;;2.28;0.20;;;;;;;;;;5077903;28;20063;-54
2021/06/25 12:18:25;;;;;;;0.30;0.20;;;;;;;;;;5085275;28;20120;-55
2021/06/25 12:21:02;;;;;;;0.20;0.20;;;;;;;;;;5091132;28;20442;-55
2021/06/25 12:23:29;;;;;;;0.20;0.20;;;;;;;;;;5085701;28;20091;-54
2021/06/25 12:25:56;;;;;;;0.20;0.20;;;;;;;;;;5091316;28;20040;-55
2021/06/25 12:28:23;;;;;;;1.65;0.20;;;;;;;;;;5089318;28;20033;-55
2021/06/25 12:30:52;;;;;;;0.70;0.20;;;;;;;;;;5087641;28;20051;-54
2021/06/25 12:33:24;;;;;;;0.20;0.20;;;;;;;;;;5079559;28;20043;-54
2021/06/25 12:35:51;;;;;;;0.20;0.20;;;;;;;;;;5083549;28;20080;-53
2021/06/25 12:38:19;;;;;;;0.40;0.20;;;;;;;;;;5090530;28;20067;-53
2021/06/25 12:40:53;;;;;;;0.25;0.20;;;;;;;;;;5089330;28;20044;-55
2021/06/25 12:43:23;;;;;;;0.40;0.20;;;;;;;;;;5085774;28;20064;-54
2021/06/25 12:45:51;;;;;;;0.50;0.20;;;;;;;;;;5091253;28;20028;-54
2021/06/25 12:48:25;;;;;;;1.30;0.40;;;;;;;;;;5079963;28;20033;-54
2021/06/25 12:51:04;;;;;;;0.88;0.20;;;;;;;;;;5084142;28;20606;-55
2021/06/25 12:53:32;;;;;;;0.52;0.20;;;;;;;;;;5091570;28;20116;-54
2021/06/25 12:56:02;;;;;;;1.35;0.20;;;;;;;;;;5087900;28;20044;-54
2021/06/25 12:58:32;;;;;;;0.28;0.20;;;;;;;;;;5089689;28;20079;-53
2021/06/25 13:01:00;;;;;;;0.25;0.20;;;;;;;;;;5089588;28;20043;-54
2021/06/25 13:03:27;;;;;;;2.17;0.20;;;;;;;;;;5086867;28;20045;-54
2021/06/25 13:05:54;;;;;;;0.22;0.20;;;;;;;;;;5090967;28;20514;-54
2021/06/25 13:08:23;;;;;;;0.88;0.20;;;;;;;;;;5085450;28;20032;-53
2021/06/25 13:10:51;;;;;;;1.85;0.20;;;;;;;;;;5090390;28;20119;-54
2021/06/25 13:13:19;;;;;;;0.28;0.20;;;;;;;;;;5089559;28;20052;-54
2021/06/25 13:15:47;;;;;;;1.23;0.20;;;;;;;;;;5084331;28;20592;-54
2021/06/25 13:18:17;;;;;;;0.25;0.20;;;;;;;;;;5076664;28;20068;-51
2021/06/25 13:21:02;;;;;;;0.60;0.20;;;;;;;;;;5087741;28;20656;-54
2021/06/25 13:23:29;;;;;;;0.30;0.20;;;;;;;;;;5087880;28;20044;-54
2021/06/25 13:25:59;;;;;;;0.20;0.20;;;;;;;;;;5089995;28;20128;-55
2021/06/25 13:28:26;;;;;;;1.55;0.30;;;;;;;;;;5087749;28;20127;-54
2021/06/25 13:31:03;;;;;;;0.20;0.20;;;;;;;;;;5087807;28;20032;-55
2021/06/25 13:33:40;;;;;;;1.75;0.20;;;;;;;;;;5091098;28;20109;-55
2021/06/25 13:36:08;;;;;;;0.45;0.20;;;;;;;;;;5084088;28;20131;-54
2021/06/25 13:38:36;;;;;;;1.20;0.10;;;;;;;;;;5090096;28;20073;-54
2021/06/25 13:41:24;;;;;;;0.20;0.20;;;;;;;;;;5089379;28;20048;-53
2021/06/25 13:43:51;;;;;;;0.20;0.20;;;;;;;;;;5084475;28;20044;-54
2021/06/25 13:46:19;;;;;;;0.25;0.20;;;;;;;;;;5074240;28;20465;-54
2021/06/25 13:48:58;;;;;;;2.03;0.20;;;;;;;;;;5078505;28;20487;-53
2021/06/25 13:51:25;;;;;;;0.30;0.20;;;;;;;;;;5083825;28;20032;-54
2021/06/25 13:53:52;;;;;;;0.90;0.10;;;;;;;;;;5090188;28;20040;-55
2021/06/25 13:56:20;;;;;;;0.20;0.20;;;;;;;;;;5084933;28;20132;-54
2021/06/25 13:58:56;;;;;;;0.20;0.20;;;;;;;;;;5088159;28;20042;-55
2021/06/25 14:01:35;;;;;;;1.38;0.20;;;;;;;;;;5087586;28;20101;-54
2021/06/25 14:04:06;;;;;;;0.45;0.20;;;;;;;;;;5083877;28;20196;-54
2021/06/25 14:06:33;;;;;;;0.30;0.20;;;;;;;;;;5081234;28;20071;-54
2021/06/25 14:08:59;;;;;;;0.20;0.20;;;;;;;;;;5087410;28;20040;-53
2021/06/25 14:11:28;;;;;;;0.30;0.20;;;;;;;;;;5087009;28;20131;-54
2021/06/25 14:13:56;;;;;;;1.42;0.20;;;;;;;;;;5090916;28;20075;-54
2021/06/25 14:16:27;;;;;;;0.20;0.20;;;;;;;;;;5084953;28;20105;-53
2021/06/25 14:18:55;;;;;;;0.45;0.20;;;;;;;;;;5085979;28;20507;-54
2021/06/25 14:21:24;;;;;;;0.20;0.20;;;;;;;;;;5087116;28;20408;-53
2021/06/25 14:23:50;;;;;;;0.20;0.20;;;;;;;;;;5086771;28;20115;-52
2021/06/25 14:26:18;;;;;;;0.20;0.20;;;;;;;;;;5088265;28;20116;-52
2021/06/25 14:28:44;;;;;;;0.47;0.20;;;;;;;;;;5077932;28;20052;-53
2021/06/25 14:31:11;;;;;;;1.15;0.20;;;;;;;;;;5076064;28;20036;-54
2021/06/25 14:33:38;;;;;;;2.30;0.20;;;;;;;;;;5088385;28;20772;-54
2021/06/25 14:36:05;;;;;;;0.17;0.17;;;;;;;;;;5085258;28;20044;-54
2021/06/25 14:38:32;;;;;;;0.40;0.20;;;;;;;;;;5080954;28;20464;-54
2021/06/25 14:40:59;;;;;;;1.25;0.20;;;;;;;;;;5086870;28;20115;-54
2021/06/25 14:43:26;;;;;;;1.75;0.20;;;;;;;;;;5089553;28;20066;-55
2021/06/25 14:45:53;;;;;;;0.28;0.25;;;;;;;;;;5074674;28;20048;-55
2021/06/25 14:48:19;;;;;;;0.22;0.20;;;;;;;;;;5079930;28;20071;-54
2021/06/25 14:50:46;;;;;;;0.20;0.20;;;;;;;;;;5076434;28;20070;-54
2021/06/25 14:53:13;;;;;;;0.40;0.20;;;;;;;;;;5080820;28;20044;-55
2021/06/25 14:55:40;;;;;;;0.40;0.20;;;;;;;;;;5084391;28;20113;-54
2021/06/25 14:58:08;;;;;;;0.70;0.20;;;;;;;;;;5089970;28;20093;-54
2021/06/25 15:00:42;;;;;;;0.75;0.20;;;;;;;;;;5085686;28;20407;-54
2021/06/25 15:03:10;;;;;;;0.40;0.25;;;;;;;;;;5087708;28;20044;-54
2021/06/25 15:05:37;;;;;;;0.40;0.20;;;;;;;;;;5087221;28;20040;-54